logo
Search for airport 
image banner adimage banner adimage banner ad
image banner ad

EDFI - Hirzenhain

Located in Hirzenhain, Germany

ICAO - EDFI, IATA -

Data provided by Airmate  

General information

Coordinates: N50°47'15" E8°23'31"
Elevation is 1706 feet MSL.
Magnetic variation is 3.0000° East
View others Airports in Hesse

Operational data

Special qualification required
Current time UTC:
Current local time:
Weather at : EDGS - Siegerland ( 23 km )
METAR: EDGS 231650Z 29012KT 9999 BKN017 BKN038 18/14 Q1018
TAF: TAF EDGS 231400Z 2315/2324 22010KT 9999 SCT007 BKN020 BECMG 2315/2318 28010KT TEMPO 2315/2320 SHRA BKN012CB PROB30 TEMPO 2315/2318 26020G35KT 2500 TSRA BKN007CB BECMG 2319/2321 BKN010 BECMG 2321/2323 BKN007
View NOTAMs / SUP AIP / TFR affecting this airport [VIEW]
Communications frequencies: [VIEW]

Runways:

RWY identifierQFULength (ft)Width (ft)SurfaceLDA (ft)
11110°196998GRASS1969
29290°196998GRASS1969

Airport contact information

Address: Hirzenhain Germany

Satellite view of EDFI